createdAt,value
2023-04-18T00:00:07.205Z,50.866879
2023-04-18T00:01:07.188Z,50.866859
2023-04-18T00:02:07.296Z,50.866848
2023-04-18T00:03:07.324Z,50.866875
2023-04-18T00:04:07.354Z,50.866917
2023-04-18T00:05:07.180Z,50.866909
2023-04-18T00:06:07.198Z,50.866798
2023-04-18T00:07:07.155Z,50.866837
2023-04-18T00:08:07.130Z,50.866795
2023-04-18T00:09:07.168Z,50.866825
2023-04-18T00:10:07.116Z,50.866844
2023-04-18T00:11:07.113Z,50.866863
2023-04-18T00:12:07.113Z,50.866856
2023-04-18T00:13:07.714Z,50.866844
2023-04-18T00:14:07.096Z,50.866852
2023-04-18T00:15:07.081Z,50.866909
2023-04-18T00:16:07.067Z,50.866947
2023-04-18T00:17:07.185Z,50.866928
2023-04-18T00:18:07.317Z,50.866791
2023-04-18T00:19:07.060Z,50.866764
2023-04-18T00:20:07.065Z,50.866753
2023-04-18T00:21:07.051Z,50.866817
2023-04-18T00:24:58.379Z,50.866714
2023-04-18T00:25:58.603Z,50.866714
2023-04-18T00:26:57.589Z,50.866714
2023-04-18T00:27:57.616Z,50.866714
2023-04-18T00:28:58.471Z,50.866722
2023-04-18T00:29:57.557Z,50.866722
2023-04-18T00:30:57.601Z,50.866714
2023-04-18T00:31:57.571Z,50.866726
2023-04-18T00:32:57.584Z,50.866711
2023-04-18T00:33:57.532Z,50.866718
2023-04-18T00:34:57.514Z,50.866726
2023-04-18T00:35:57.627Z,50.866741
2023-04-18T00:36:57.523Z,50.866703
2023-04-18T00:37:58.337Z,50.866730
2023-04-18T00:38:57.490Z,50.866699
2023-04-18T00:39:57.472Z,50.866650
2023-04-18T00:40:57.481Z,50.866669
2023-04-18T00:41:57.483Z,50.866688
2023-04-18T00:42:57.458Z,50.866665
2023-04-18T00:43:57.449Z,50.866695
2023-04-18T00:44:57.449Z,50.866680
2023-04-18T00:45:57.485Z,50.866692
2023-04-18T00:46:57.448Z,50.866653
2023-04-18T00:47:57.525Z,50.866699
2023-04-18T00:48:57.410Z,50.866680
2023-04-18T00:49:57.451Z,50.866699
2023-04-18T00:50:57.395Z,50.866718
2023-04-18T00:51:57.402Z,50.866703
2023-04-18T00:52:57.383Z,50.866703
2023-04-18T00:53:57.382Z,50.866703
2023-04-18T00:54:57.366Z,50.866703
2023-04-18T00:55:57.891Z,50.866703
2023-04-18T00:56:57.357Z,50.866703
2023-04-18T00:57:57.348Z,50.866703
2023-04-18T00:58:57.336Z,50.866703
2023-04-18T00:59:58.326Z,50.866703
2023-04-18T01:00:57.322Z,50.866703
2023-04-18T01:01:57.366Z,50.866703
2023-04-18T01:02:57.394Z,50.866760
2023-04-18T01:03:57.415Z,50.866875
2023-04-18T01:04:57.291Z,50.866722
2023-04-18T01:05:57.275Z,50.866711
2023-04-18T01:06:57.277Z,50.866749
2023-04-18T01:07:57.262Z,50.866730
2023-04-18T01:08:57.260Z,50.866699
2023-04-18T01:09:57.249Z,50.866703
2023-04-18T01:10:57.245Z,50.866688
2023-04-18T01:11:57.269Z,50.866756
2023-04-18T01:12:57.220Z,50.866756
2023-04-18T01:13:57.245Z,50.866714
2023-04-18T01:14:57.218Z,50.866718
2023-04-18T01:15:57.235Z,50.866714
2023-04-18T01:16:57.892Z,50.866749
2023-04-18T01:17:57.230Z,50.866772
2023-04-18T01:18:57.180Z,50.866703
2023-04-18T01:19:57.184Z,50.866718
2023-04-18T01:20:57.190Z,50.866726
2023-04-18T01:21:57.171Z,50.866741
2023-04-18T01:22:57.154Z,50.866741
2023-04-18T01:23:57.144Z,50.866760
2023-04-18T01:24:57.160Z,50.866730
2023-04-18T01:25:57.152Z,50.866764
2023-04-18T01:26:57.117Z,50.866764
2023-04-18T01:27:57.111Z,50.866745
2023-04-18T01:28:57.099Z,50.866821
2023-04-18T01:29:57.894Z,50.866829
2023-04-18T01:30:57.114Z,50.866806
2023-04-18T01:31:57.072Z,50.866817
2023-04-18T01:32:57.074Z,50.866703
2023-04-18T01:33:57.056Z,50.866604
2023-04-18T01:34:57.047Z,50.866570
2023-04-18T01:35:57.046Z,50.866638
2023-04-18T01:36:57.034Z,50.866783
2023-04-18T01:37:57.039Z,50.866783
2023-04-18T01:38:57.021Z,50.867008
2023-04-18T01:39:57.008Z,50.866814
2023-04-18T01:40:57.000Z,50.866905
2023-04-18T01:41:56.992Z,50.866882
2023-04-18T01:42:57.021Z,50.866829
2023-04-18T01:43:56.977Z,50.866749
2023-04-18T01:44:56.967Z,50.866768
2023-04-18T01:45:56.984Z,50.866764
2023-04-18T01:46:57.065Z,50.866779
2023-04-18T01:47:57.044Z,50.866821
2023-04-18T01:48:56.935Z,50.866734
2023-04-18T01:49:56.930Z,50.866745
2023-04-18T01:50:56.916Z,50.866776
2023-04-18T01:51:56.929Z,50.866798
2023-04-18T01:52:56.926Z,50.866798
2023-04-18T01:53:56.893Z,50.866787
2023-04-18T01:54:57.896Z,50.866776
2023-04-18T01:55:56.881Z,50.866810
2023-04-18T01:56:56.879Z,50.866810
2023-04-18T01:57:56.871Z,50.866764
2023-04-18T01:58:56.863Z,50.866764
2023-04-18T01:59:56.859Z,50.866756
2023-04-18T02:00:56.859Z,50.866806
2023-04-18T02:01:56.918Z,50.866791
2023-04-18T02:02:56.988Z,50.866859
2023-04-18T02:03:56.910Z,50.866741
2023-04-18T02:04:56.822Z,50.866760
2023-04-18T02:05:56.802Z,50.866753
2023-04-18T02:06:56.807Z,50.866798
2023-04-18T02:07:56.782Z,50.866737
2023-04-18T02:08:56.781Z,50.866772
2023-04-18T02:09:56.785Z,50.866703
2023-04-18T02:10:56.772Z,50.866684
2023-04-18T02:11:56.759Z,50.866798
2023-04-18T02:12:56.744Z,50.866829
2023-04-18T02:13:56.750Z,50.866707
2023-04-18T02:14:56.753Z,50.866756
2023-04-18T02:15:56.798Z,50.866806
2023-04-18T02:16:56.773Z,50.866871
2023-04-18T02:17:56.749Z,50.866848
2023-04-18T02:18:56.715Z,50.866997
2023-04-18T02:19:57.484Z,50.867184
2023-04-18T02:20:56.687Z,50.867496
2023-04-18T02:21:56.683Z,50.868286
2023-04-18T02:22:56.670Z,50.867443
2023-04-18T02:23:56.668Z,50.867085
2023-04-18T02:24:56.655Z,50.866913
2023-04-18T02:25:56.652Z,50.866817
2023-04-18T02:26:56.636Z,50.866711
2023-04-18T02:27:56.634Z,50.866772
2023-04-18T02:28:56.613Z,50.866791
2023-04-18T02:29:56.611Z,50.866947
2023-04-18T02:30:56.605Z,50.866905
2023-04-18T02:31:56.637Z,50.866920
2023-04-18T02:32:56.626Z,50.866894
2023-04-18T02:33:56.579Z,50.866875
2023-04-18T02:34:56.591Z,50.866810
2023-04-18T02:35:56.573Z,50.866867
2023-04-18T02:36:56.562Z,50.866879
2023-04-18T02:37:56.558Z,50.866867
2023-04-18T02:38:56.533Z,50.866776
2023-04-18T02:39:56.533Z,50.866756
2023-04-18T02:40:56.552Z,50.866867
2023-04-18T02:41:56.518Z,50.866871
2023-04-18T02:46:03.945Z,50.866852
2023-04-18T02:47:03.855Z,50.866718
2023-04-18T02:48:03.858Z,50.866585
2023-04-18T02:49:03.831Z,50.866692
2023-04-18T02:50:04.839Z,50.866669
2023-04-18T02:51:03.828Z,50.866829
2023-04-18T02:52:03.820Z,50.866852
2023-04-18T02:53:03.815Z,50.866783
2023-04-18T02:54:03.799Z,50.866890
2023-04-18T02:55:03.814Z,50.866669
2023-04-18T02:56:03.778Z,50.866528
2023-04-18T02:57:03.782Z,50.866554
2023-04-18T02:58:04.729Z,50.866653
2023-04-18T02:59:03.758Z,50.866661
2023-04-18T03:00:03.755Z,50.866657
2023-04-18T03:01:03.778Z,50.866692
2023-04-18T03:02:03.821Z,50.866673
2023-04-18T03:03:03.858Z,50.866680
2023-04-18T03:04:03.723Z,50.866692
2023-04-18T03:05:03.849Z,50.866737
2023-04-18T03:06:03.710Z,50.866756
2023-04-18T03:07:03.698Z,50.866768
2023-04-18T03:08:03.678Z,50.866745
2023-04-18T03:09:03.672Z,50.866676
2023-04-18T03:10:03.694Z,50.866615
2023-04-18T03:11:03.663Z,50.866711
2023-04-18T03:12:03.651Z,50.866722
2023-04-18T03:13:03.665Z,50.866718
2023-04-18T03:14:03.637Z,50.866699
2023-04-18T03:15:03.633Z,50.866680
2023-04-18T03:16:03.675Z,50.866676
2023-04-18T03:17:03.609Z,50.866638
2023-04-18T03:18:03.649Z,50.866711
2023-04-18T03:19:04.155Z,50.866692
2023-04-18T03:20:03.607Z,50.866676
2023-04-18T03:21:03.594Z,50.866695
2023-04-18T03:22:03.613Z,50.866608
2023-04-18T03:23:03.559Z,50.866600
2023-04-18T03:24:03.558Z,50.866627
2023-04-18T03:25:03.552Z,50.866608
2023-04-18T03:26:03.539Z,50.866562
2023-04-18T03:27:03.553Z,50.866539
2023-04-18T03:28:03.511Z,50.866550
2023-04-18T03:29:03.509Z,50.866611
2023-04-18T03:30:03.498Z,50.866684
2023-04-18T03:31:03.525Z,50.866695
2023-04-18T03:32:03.478Z,50.866684
2023-04-18T03:33:03.516Z,50.866730
2023-04-18T03:34:03.465Z,50.866764
2023-04-18T03:35:04.228Z,50.866768
2023-04-18T03:36:03.450Z,50.866867
2023-04-18T03:37:03.446Z,50.866745
2023-04-18T03:38:03.432Z,50.866745
2023-04-18T03:39:03.459Z,50.866741
2023-04-18T03:40:03.430Z,50.866787
2023-04-18T03:41:03.415Z,50.866837
2023-04-18T03:42:03.402Z,50.866756
2023-04-18T03:43:03.402Z,50.866714
2023-04-18T03:44:03.395Z,50.866753
2023-04-18T03:45:03.390Z,50.866745
2023-04-18T03:46:03.427Z,50.866783
2023-04-18T03:47:03.359Z,50.866787
2023-04-18T03:48:03.474Z,50.866817
2023-04-18T03:49:03.344Z,50.866802
2023-04-18T03:50:03.348Z,50.866711
2023-04-18T03:51:03.341Z,50.866776
2023-04-18T03:52:03.342Z,50.866676
2023-04-18T03:53:03.314Z,50.866779
2023-04-18T03:54:03.320Z,50.866787
2023-04-18T03:55:03.314Z,50.866722
2023-04-18T03:56:03.328Z,50.866772
2023-04-18T03:57:03.287Z,50.866753
2023-04-18T03:58:03.271Z,50.866772
2023-04-18T03:59:03.267Z,50.866749
2023-04-18T04:00:03.257Z,50.866795
2023-04-18T04:01:03.259Z,50.866901
2023-04-18T04:02:03.353Z,50.866848
2023-04-18T04:03:03.310Z,50.866837
2023-04-18T04:04:03.263Z,50.866840
2023-04-18T04:05:03.321Z,50.866810
2023-04-18T04:06:03.232Z,50.866806
2023-04-18T04:07:03.211Z,50.866806
2023-04-18T04:08:03.193Z,50.866825
2023-04-18T04:09:03.176Z,50.866772
2023-04-18T04:10:03.209Z,50.866833
2023-04-18T04:11:03.170Z,50.866825
2023-04-18T04:12:03.154Z,50.866909
2023-04-18T04:13:03.150Z,50.866825
2023-04-18T04:14:03.140Z,50.866810
2023-04-18T04:15:03.170Z,50.866844
2023-04-18T04:16:03.147Z,50.866825
2023-04-18T04:17:03.141Z,50.866787
2023-04-18T04:18:03.152Z,50.866886
2023-04-18T04:19:03.117Z,50.866768
2023-04-18T04:20:03.117Z,50.866791
2023-04-18T04:21:03.084Z,50.866787
2023-04-18T04:22:03.087Z,50.866776
2023-04-18T04:23:03.074Z,50.866764
2023-04-18T04:24:03.059Z,50.866749
2023-04-18T04:25:03.052Z,50.866779
2023-04-18T04:26:03.065Z,50.866798
2023-04-18T04:27:03.045Z,50.866791
2023-04-18T04:28:03.048Z,50.866783
2023-04-18T04:29:03.031Z,50.866795
2023-04-18T04:30:03.033Z,50.866776
2023-04-18T04:31:03.014Z,50.866856
2023-04-18T04:32:03.036Z,50.866787
2023-04-18T04:33:03.155Z,50.866795
2023-04-18T04:34:03.743Z,50.866795
2023-04-18T04:35:03.674Z,50.866791
2023-04-18T04:36:02.970Z,50.866768
2023-04-18T04:37:02.964Z,50.866802
2023-04-18T04:38:02.953Z,50.866768
2023-04-18T04:39:03.739Z,50.866749
2023-04-18T04:40:02.941Z,50.866734
2023-04-18T04:41:02.927Z,50.866753
2023-04-18T04:42:02.911Z,50.866753
2023-04-18T04:43:02.930Z,50.866825
2023-04-18T04:44:02.898Z,50.866772
2023-04-18T04:45:02.953Z,50.866741
2023-04-18T04:46:02.938Z,50.866764
2023-04-18T04:47:02.888Z,50.866772
2023-04-18T04:48:02.926Z,50.866768
2023-04-18T04:49:02.860Z,50.866756
2023-04-18T04:50:02.850Z,50.866730
2023-04-18T04:51:02.871Z,50.866730
2023-04-18T04:52:02.834Z,50.866745
2023-04-18T04:53:02.821Z,50.866714
2023-04-18T04:54:02.845Z,50.866734
2023-04-18T04:55:02.807Z,50.866718
2023-04-18T04:56:02.800Z,50.866795
2023-04-18T04:57:02.791Z,50.866749
2023-04-18T04:58:02.781Z,50.866756
2023-04-18T04:59:02.774Z,50.866734
2023-04-18T05:00:02.759Z,50.866734
2023-04-18T05:01:02.784Z,50.866718
2023-04-18T05:02:02.903Z,50.866753
2023-04-18T05:03:02.980Z,50.866764
2023-04-18T05:04:02.861Z,50.866760
2023-04-18T05:05:02.800Z,50.866760
2023-04-18T05:06:02.724Z,50.866768
2023-04-18T05:07:02.708Z,50.866779
2023-04-18T05:08:02.716Z,50.866810
2023-04-18T05:09:02.704Z,50.866772
2023-04-18T05:10:02.686Z,50.866772
2023-04-18T05:11:02.720Z,50.866783
2023-04-18T05:12:02.664Z,50.866772
2023-04-18T05:13:02.660Z,50.866787
2023-04-18T05:14:02.671Z,50.866779
2023-04-18T05:15:02.640Z,50.866787
2023-04-18T05:16:02.681Z,50.866802
2023-04-18T05:17:02.712Z,50.866787
2023-04-18T05:18:02.748Z,50.866753
2023-04-18T05:19:02.627Z,50.866756
2023-04-18T05:20:02.621Z,50.866768
2023-04-18T05:21:02.598Z,50.866768
2023-04-18T05:22:02.581Z,50.866768
2023-04-18T05:23:02.579Z,50.866798
2023-04-18T05:24:02.569Z,50.866779
2023-04-18T05:25:02.578Z,50.866798
2023-04-18T05:26:02.568Z,50.866802
2023-04-18T05:27:02.552Z,50.866859
2023-04-18T05:28:02.539Z,50.866840
2023-04-18T05:29:02.534Z,50.866844
2023-04-18T05:30:02.527Z,50.866856
2023-04-18T05:31:02.568Z,50.866814
2023-04-18T05:32:03.247Z,50.866802
2023-04-18T05:33:02.548Z,50.866798
2023-04-18T05:34:02.492Z,50.866764
2023-04-18T05:35:02.505Z,50.866745
2023-04-18T05:36:02.474Z,50.866795
2023-04-18T05:37:02.481Z,50.866802
2023-04-18T05:38:02.486Z,50.866779
2023-04-18T05:39:02.552Z,50.866749
2023-04-18T05:40:02.450Z,50.866768
2023-04-18T05:41:02.441Z,50.866817
2023-04-18T05:42:02.489Z,50.866840
2023-04-18T05:43:02.418Z,50.866779
2023-04-18T05:44:05.747Z,50.866783
2023-04-18T05:45:03.419Z,50.866795
2023-04-18T05:46:02.448Z,50.866890
2023-04-18T05:47:02.391Z,50.866894
2023-04-18T05:48:02.540Z,50.866806
2023-04-18T05:49:02.386Z,50.866791
2023-04-18T05:50:02.394Z,50.866833
2023-04-18T05:51:02.370Z,50.866844
2023-04-18T05:52:02.390Z,50.866871
2023-04-18T05:53:02.403Z,50.866795
2023-04-18T05:54:03.357Z,50.866749
2023-04-18T05:55:02.333Z,50.866806
2023-04-18T05:56:02.320Z,50.866859
2023-04-18T05:57:04.262Z,50.866863
2023-04-18T05:58:02.303Z,50.866821
2023-04-18T05:59:02.287Z,50.866852
2023-04-18T06:00:02.420Z,50.866848
2023-04-18T06:01:02.293Z,50.866856
2023-04-18T06:02:02.309Z,50.866867
2023-04-18T06:03:02.429Z,50.866840
2023-04-18T06:04:02.406Z,50.866814
2023-04-18T06:05:02.467Z,50.866844
2023-04-18T06:06:02.305Z,50.866917
2023-04-18T06:07:02.229Z,50.866791
2023-04-18T06:08:02.230Z,50.866722
2023-04-18T06:09:02.237Z,50.866665
2023-04-18T06:10:02.241Z,50.866821
2023-04-18T06:11:02.198Z,50.866875
2023-04-18T06:12:02.183Z,50.866760
2023-04-18T06:13:02.174Z,50.866821
2023-04-18T06:14:02.273Z,50.867023
2023-04-18T06:15:02.175Z,50.866905
2023-04-18T06:16:02.719Z,50.866714
2023-04-18T06:17:02.711Z,50.866657
2023-04-18T06:18:02.327Z,50.867111
2023-04-18T06:19:02.138Z,50.867115
2023-04-18T06:20:02.769Z,50.867046
2023-04-18T06:21:02.134Z,50.867001
2023-04-18T06:22:02.132Z,50.867012
2023-04-18T06:23:02.120Z,50.867065
2023-04-18T06:24:02.094Z,50.866997
2023-04-18T06:25:02.337Z,50.866940
2023-04-18T06:26:02.082Z,50.866947
2023-04-18T06:27:02.088Z,50.866844
2023-04-18T06:28:02.095Z,50.866714
2023-04-18T06:29:02.746Z,50.866722
2023-04-18T06:30:02.076Z,50.866905
2023-04-18T06:31:02.041Z,50.866909
2023-04-18T06:32:02.137Z,50.866917
2023-04-18T06:33:02.191Z,50.866810
2023-04-18T06:34:02.007Z,50.866962
2023-04-18T06:35:01.998Z,50.866959
2023-04-18T06:36:02.033Z,50.866966
2023-04-18T06:37:01.993Z,50.866886
2023-04-18T06:38:02.075Z,50.866936
2023-04-18T06:39:02.119Z,50.866966
2023-04-18T06:40:02.008Z,50.866821
2023-04-18T06:41:01.961Z,50.866871
2023-04-18T06:42:01.947Z,50.866833
2023-04-18T06:43:01.935Z,50.866699
2023-04-18T06:44:04.523Z,50.866764
2023-04-18T06:45:03.768Z,50.866795
2023-04-18T06:46:02.017Z,50.866817
2023-04-18T06:47:02.689Z,50.866814
2023-04-18T06:48:01.938Z,50.866783
2023-04-18T06:49:01.877Z,50.866810
2023-04-18T06:50:01.925Z,50.866764
2023-04-18T06:51:01.914Z,50.866772
2023-04-18T06:52:34.236Z,50.866787
2023-04-18T06:53:06.719Z,50.866764
2023-04-18T06:54:01.872Z,50.866810
2023-04-18T06:55:04.745Z,50.866810
2023-04-18T06:56:03.263Z,50.866802
2023-04-18T06:57:34.275Z,50.866776
2023-04-18T06:58:01.837Z,50.866787
2023-04-18T06:59:01.831Z,50.866783
2023-04-18T07:00:01.848Z,50.866802
2023-04-18T07:01:01.869Z,50.866798
2023-04-18T07:02:01.866Z,50.866821
2023-04-18T07:03:02.042Z,50.866833
2023-04-18T07:04:02.847Z,50.866829
2023-04-18T07:05:01.832Z,50.866821
2023-04-18T07:06:02.758Z,50.866817
2023-04-18T07:07:01.750Z,50.866791
2023-04-18T07:08:03.388Z,50.866779
2023-04-18T07:09:02.246Z,50.866802
2023-04-18T07:10:02.372Z,50.866814
2023-04-18T07:11:01.715Z,50.866798
2023-04-18T07:12:03.272Z,50.866814
2023-04-18T07:13:01.866Z,50.866795
2023-04-18T07:17:09.483Z,50.866325
2023-04-18T07:18:14.474Z,50.866802
2023-04-18T07:19:09.372Z,50.866806
2023-04-18T07:20:12.358Z,50.866760
2023-04-18T07:21:09.371Z,50.866821
2023-04-18T07:27:17.023Z,50.866734
2023-04-18T07:28:17.033Z,50.866955
2023-04-18T07:29:17.007Z,50.866840
2023-04-18T07:30:17.144Z,50.866875
2023-04-18T07:31:32.121Z,50.866795
2023-04-18T07:32:27.520Z,50.866772
2023-04-18T07:33:18.039Z,50.866825
2023-04-18T07:34:17.598Z,50.866768
2023-04-18T07:35:17.333Z,50.866772
2023-04-18T07:36:16.978Z,50.866776
2023-04-18T07:37:17.342Z,50.866760
2023-04-18T07:38:16.996Z,50.866760
2023-04-18T07:39:17.017Z,50.866737
2023-04-18T07:40:49.144Z,50.866844
2023-04-18T07:41:19.589Z,50.866837
2023-04-18T07:42:19.639Z,50.866680
2023-04-18T07:43:19.233Z,50.866787
2023-04-18T07:44:18.783Z,50.866844
2023-04-18T07:45:16.880Z,50.866802
2023-04-18T07:46:16.918Z,50.866798
2023-04-18T07:47:16.870Z,50.866802
2023-04-18T07:48:49.658Z,50.866772
2023-04-18T07:49:20.594Z,50.866779
2023-04-18T07:50:17.607Z,50.866768
2023-04-18T07:51:19.678Z,50.866756
2023-04-18T07:52:17.017Z,50.866711
2023-04-18T07:53:17.629Z,50.866787
2023-04-18T07:54:16.874Z,50.866798
2023-04-18T07:55:17.658Z,50.866802
2023-04-18T07:56:16.824Z,50.866737
2023-04-18T07:57:19.594Z,50.866779
2023-04-18T07:58:17.815Z,50.866756
2023-04-18T08:07:26.084Z,50.866703
2023-04-18T08:08:25.243Z,50.866600
2023-04-18T08:09:25.233Z,50.866425
2023-04-18T08:10:25.232Z,50.866425
2023-04-18T08:11:25.220Z,50.866425
2023-04-18T08:12:25.209Z,50.866425
2023-04-18T08:13:25.222Z,50.866341
2023-04-18T08:14:25.213Z,50.866314
2023-04-18T08:15:25.207Z,50.866318
2023-04-18T08:16:25.230Z,50.866356
2023-04-18T08:17:25.211Z,50.866425
2023-04-18T08:18:27.122Z,50.866608
2023-04-18T08:19:26.994Z,50.866714
2023-04-18T08:20:27.217Z,50.866692
2023-04-18T08:21:25.163Z,50.866688
2023-04-18T08:22:25.142Z,50.866684
2023-04-18T08:23:27.126Z,50.866611
2023-04-18T08:24:28.093Z,50.866623
2023-04-18T08:26:28.050Z,50.866669
2023-04-18T08:27:28.517Z,50.866631
2023-04-18T08:28:29.048Z,50.866623
2023-04-18T08:29:27.018Z,50.866627
2023-04-18T08:30:25.127Z,50.866642
2023-04-18T08:31:25.123Z,50.866722
2023-04-18T08:32:26.039Z,50.866726
2023-04-18T08:33:25.032Z,50.866661
2023-04-18T08:34:25.066Z,50.866619
2023-04-18T08:35:25.531Z,50.866608
2023-04-18T08:36:25.029Z,50.866619
2023-04-18T08:37:26.594Z,50.866642
2023-04-18T08:38:25.004Z,50.866627
2023-04-18T08:39:25.431Z,50.866627
2023-04-18T08:40:27.545Z,50.866657
2023-04-18T08:41:26.483Z,50.866657
2023-04-18T08:42:24.990Z,50.866634
2023-04-18T08:43:25.164Z,50.866665
2023-04-18T08:44:24.940Z,50.866642
2023-04-18T08:45:25.062Z,50.866657
2023-04-18T08:46:25.153Z,50.866657
2023-04-18T08:47:24.975Z,50.866673
2023-04-18T08:48:24.995Z,50.866661
2023-04-18T08:49:24.934Z,50.866684
2023-04-18T08:50:25.881Z,50.866657
2023-04-18T08:51:24.912Z,50.866665
2023-04-18T08:52:24.899Z,50.866638
2023-04-18T08:53:25.505Z,50.866638
2023-04-18T08:54:26.706Z,50.866699
2023-04-18T08:55:25.555Z,50.866684
2023-04-18T08:56:24.847Z,50.866692
2023-04-18T08:57:24.836Z,50.866711
2023-04-18T08:58:24.817Z,50.866730
2023-04-18T08:59:24.825Z,50.866737
2023-04-18T09:00:24.846Z,50.866699
2023-04-18T09:01:24.866Z,50.866718
2023-04-18T09:02:24.874Z,50.866722
2023-04-18T09:03:24.841Z,50.866726
2023-04-18T09:04:25.008Z,50.866722
2023-04-18T09:05:24.757Z,50.866711
2023-04-18T09:06:26.056Z,50.866718
2023-04-18T09:07:25.522Z,50.866726
2023-04-18T09:08:24.725Z,50.866714
2023-04-18T09:09:24.730Z,50.866726
2023-04-18T09:10:26.585Z,50.866711
2023-04-18T09:11:24.723Z,50.866726
2023-04-18T09:12:24.702Z,50.866726
2023-04-18T09:13:24.681Z,50.866768
2023-04-18T09:14:28.675Z,50.866772
2023-04-18T09:15:24.754Z,50.866692
2023-04-18T09:16:25.666Z,50.866734
2023-04-18T09:17:25.566Z,50.866711
2023-04-18T09:18:24.637Z,50.866711
2023-04-18T09:19:24.640Z,50.866688
2023-04-18T09:20:24.682Z,50.866703
2023-04-18T09:21:26.637Z,50.866753
2023-04-18T09:22:24.610Z,50.866783
2023-04-18T09:23:24.727Z,50.866737
2023-04-18T09:24:24.599Z,50.866749
2023-04-18T09:25:24.615Z,50.866753
2023-04-18T09:26:24.789Z,50.866783
2023-04-18T09:27:24.591Z,50.866879
2023-04-18T09:28:24.590Z,50.866802
2023-04-18T09:29:26.510Z,50.866703
2023-04-18T09:30:24.599Z,50.866695
2023-04-18T09:31:24.584Z,50.866714
2023-04-18T09:32:24.588Z,50.866688
2023-04-18T09:33:28.031Z,50.866714
2023-04-18T09:34:25.533Z,50.866714
2023-04-18T09:35:24.507Z,50.866634
2023-04-18T09:36:24.578Z,50.866695
2023-04-18T09:37:24.530Z,50.866726
2023-04-18T09:38:24.494Z,50.866642
2023-04-18T09:39:26.033Z,50.866680
2023-04-18T09:40:24.534Z,50.866615
2023-04-18T09:41:24.571Z,50.866665
2023-04-18T09:42:26.741Z,50.866665
2023-04-18T09:43:25.092Z,50.866646
2023-04-18T09:44:24.453Z,50.866673
2023-04-18T09:45:26.129Z,50.866707
2023-04-18T09:46:24.466Z,50.866711
2023-04-18T09:47:25.454Z,50.866714
2023-04-18T09:48:24.419Z,50.866734
2023-04-18T09:49:24.412Z,50.866711
2023-04-18T09:50:26.023Z,50.866718
2023-04-18T09:51:24.407Z,50.866722
2023-04-18T09:52:24.444Z,50.866734
2023-04-18T09:53:24.441Z,50.866741
2023-04-18T09:54:26.104Z,50.866760
2023-04-18T09:55:24.411Z,50.866741
2023-04-18T09:56:24.368Z,50.866741
2023-04-18T09:57:26.020Z,50.866753
2023-04-18T09:58:24.346Z,50.866722
2023-04-18T09:59:27.136Z,50.866714
2023-04-18T10:00:24.586Z,50.866695
2023-04-18T10:01:24.317Z,50.866768
2023-04-18T10:02:24.373Z,50.866768
2023-04-18T10:03:24.430Z,50.866787
2023-04-18T10:04:24.315Z,50.866768
2023-04-18T10:05:26.171Z,50.866726
2023-04-18T10:06:24.286Z,50.866753
2023-04-18T10:07:24.266Z,50.866821
2023-04-18T10:08:24.261Z,50.866810
2023-04-18T10:09:24.263Z,50.866776
2023-04-18T10:10:24.262Z,50.866734
2023-04-18T10:11:24.386Z,50.866745
2023-04-18T10:12:24.213Z,50.866795
2023-04-18T10:13:24.201Z,50.866783
2023-04-18T10:14:24.210Z,50.866802
2023-04-18T10:15:26.130Z,50.866814
2023-04-18T10:16:24.229Z,50.866741
2023-04-18T10:17:24.204Z,50.866734
2023-04-18T10:18:24.207Z,50.866726
2023-04-18T10:19:25.133Z,50.866764
2023-04-18T10:20:25.020Z,50.866783
2023-04-18T10:21:24.159Z,50.866806
2023-04-18T10:22:24.171Z,50.866821
2023-04-18T10:23:27.654Z,50.866798
2023-04-18T10:24:24.146Z,50.866795
2023-04-18T10:25:24.116Z,50.866756
2023-04-18T10:26:24.114Z,50.866753
2023-04-18T10:27:24.114Z,50.866722
2023-04-18T10:28:24.093Z,50.866722
2023-04-18T10:29:24.108Z,50.866726
2023-04-18T10:30:24.083Z,50.866745
2023-04-18T10:31:24.169Z,50.866703
2023-04-18T10:32:24.101Z,50.866699
2023-04-18T10:33:30.460Z,50.866707
2023-04-18T10:34:26.111Z,50.866699
2023-04-18T10:36:24.054Z,50.866737
2023-04-18T10:37:24.023Z,50.866734
2023-04-18T10:38:23.999Z,50.866737
2023-04-18T10:39:24.006Z,50.866756
2023-04-18T10:40:25.529Z,50.866714
2023-04-18T10:41:23.980Z,50.866714
2023-04-18T10:42:24.001Z,50.866711
2023-04-18T10:43:23.984Z,50.866707
2023-04-18T10:44:24.303Z,50.866711
2023-04-18T10:45:23.957Z,50.866718
2023-04-18T10:46:32.181Z,50.866756
2023-04-18T10:47:26.038Z,50.866703
2023-04-18T10:48:24.631Z,50.866714
2023-04-18T10:49:26.057Z,50.866695
2023-04-18T10:50:24.928Z,50.866745
2023-04-18T10:51:23.959Z,50.866730
2023-04-18T10:52:25.625Z,50.866676
2023-04-18T10:53:23.881Z,50.866726
2023-04-18T10:58:31.018Z,50.866787
2023-04-18T10:59:31.027Z,50.866840
2023-04-18T11:00:31.025Z,50.866806
2023-04-18T11:01:32.885Z,50.866650
2023-04-18T11:02:32.699Z,50.866871
2023-04-18T11:03:33.052Z,50.866669
2023-04-18T11:04:31.010Z,50.866753
2023-04-18T11:05:30.952Z,50.866692
2023-04-18T11:06:32.541Z,50.866577
2023-04-18T11:07:30.974Z,50.866604
2023-04-18T11:08:30.934Z,50.866665
2023-04-18T11:09:30.944Z,50.866695
2023-04-18T11:10:30.929Z,50.866722
2023-04-18T11:11:30.935Z,50.866726
2023-04-18T11:12:30.925Z,50.866688
2023-04-18T11:13:30.927Z,50.866726
2023-04-18T11:14:31.538Z,50.866680
2023-04-18T11:16:04.585Z,50.866726
2023-04-18T11:16:30.939Z,50.866711
2023-04-18T11:17:30.923Z,50.866692
2023-04-18T11:18:31.150Z,50.866714
2023-04-18T11:19:32.642Z,50.866714
2023-04-18T11:20:32.880Z,50.866707
2023-04-18T11:21:30.932Z,50.866688
2023-04-18T11:22:30.830Z,50.866718
2023-04-18T11:23:30.864Z,50.866695
2023-04-18T11:24:30.819Z,50.866608
2023-04-18T11:25:30.788Z,50.866699
2023-04-18T11:26:30.792Z,50.866722
2023-04-18T11:27:30.824Z,50.866684
2023-04-18T11:28:30.816Z,50.866669
2023-04-18T11:29:30.816Z,50.866619
2023-04-18T11:30:30.757Z,50.866810
2023-04-18T11:31:30.779Z,50.866852
2023-04-18T11:32:31.870Z,50.866661
2023-04-18T11:33:30.754Z,50.866814
2023-04-18T11:34:30.798Z,50.866692
2023-04-18T11:35:30.719Z,50.866821
2023-04-18T11:36:30.724Z,50.866817
2023-04-18T11:37:31.560Z,50.866768
2023-04-18T11:38:31.567Z,50.866776
2023-04-18T11:39:30.710Z,50.866760
2023-04-18T11:40:30.695Z,50.866924
2023-04-18T11:41:31.656Z,50.866909
2023-04-18T11:42:30.670Z,50.866867
2023-04-18T11:43:30.713Z,50.866962
2023-04-18T11:44:30.659Z,50.867043
2023-04-18T11:45:30.647Z,50.866856
2023-04-18T11:46:30.693Z,50.866840
2023-04-18T11:47:30.642Z,50.866726
2023-04-18T11:48:30.621Z,50.866745
2023-04-18T11:49:30.625Z,50.866829
2023-04-18T11:50:30.599Z,50.866810
2023-04-18T11:51:30.594Z,50.866982
2023-04-18T11:52:30.801Z,50.866802